Saint-Felix-De-Valois, Canada
Current Conditions -  °F | °C
As of 3:00 AM on Saturday 22 Nov 2014 (Local Time) from CYRQ Reporting Station
Overcast Overcast  
Wind Chill:   Ceiling: 12000
Heat Index:   Visibility: 9mi
Dew Point:   Wind: 2mph
Humidity: 85%   Direction: 220°SW
Pressure: 30.24"   Gusts: NA
Location:  46.17°N, 73.42°W
Report Text: CYRQ 220800Z AUTO 22002KT 9SM SCT100 OVC120 M14/M16 A3024 RMK SLP244
Loading
Personal Weather Stations






























Interactive Weather Map New forecast layout! Learn more

10-Day Weather Forecast

Advertisements
Track Severe Weather on mobile